createdAt,value
2023-05-16T00:01:20.554Z,1.53
2023-05-16T00:03:47.174Z,1.30
2023-05-16T00:06:13.792Z,1.23
2023-05-16T00:08:40.962Z,1.27
2023-05-16T00:11:07.634Z,1.48
2023-05-16T00:13:34.278Z,1.37
2023-05-16T00:16:02.677Z,1.13
2023-05-16T00:18:29.376Z,1.50
2023-05-16T00:20:56.854Z,1.10
2023-05-16T00:23:23.399Z,1.30
2023-05-16T00:25:49.899Z,1.50
2023-05-16T00:28:16.888Z,1.38
2023-05-16T00:30:43.406Z,1.27
2023-05-16T00:33:10.028Z,0.85
2023-05-16T00:35:36.647Z,0.90
2023-05-16T00:38:03.384Z,1.47
2023-05-16T00:40:29.974Z,1.27
2023-05-16T00:42:56.520Z,1.40
2023-05-16T00:45:23.104Z,1.23
2023-05-16T00:47:51.132Z,0.90
2023-05-16T00:50:19.032Z,1.10
2023-05-16T00:52:45.758Z,1.40
2023-05-16T00:55:13.290Z,0.90
2023-05-16T00:57:41.147Z,1.25
2023-05-16T01:00:10.760Z,1.13
2023-05-16T01:02:38.276Z,0.90
2023-05-16T01:05:05.465Z,1.30
2023-05-16T01:07:32.188Z,1.13
2023-05-16T01:09:59.552Z,0.90
2023-05-16T01:12:40.018Z,1.17
2023-05-16T01:15:12.543Z,1.07
2023-05-16T01:17:51.217Z,1.20
2023-05-16T01:20:58.321Z,0.90
2023-05-16T01:23:33.856Z,0.88
2023-05-16T01:26:19.132Z,1.02
2023-05-16T01:28:47.689Z,0.67
2023-05-16T01:31:14.762Z,1.08
2023-05-16T01:33:41.984Z,1.20
2023-05-16T01:36:33.183Z,1.00
2023-05-16T01:39:10.829Z,1.77
2023-05-16T01:42:04.518Z,0.93
2023-05-16T01:45:09.714Z,0.88
2023-05-16T01:47:41.479Z,1.38
2023-05-16T01:50:14.253Z,0.77
2023-05-16T01:52:45.066Z,1.17
2023-05-16T01:55:16.655Z,0.70
2023-05-16T01:57:45.429Z,0.93
2023-05-16T02:00:12.692Z,1.00
2023-05-16T02:02:42.102Z,1.05
2023-05-16T02:05:09.159Z,1.17
2023-05-16T02:07:36.290Z,0.90
2023-05-16T02:10:03.007Z,1.02
2023-05-16T02:12:29.520Z,0.85
2023-05-16T02:14:56.069Z,1.20
2023-05-16T02:17:22.732Z,0.90
2023-05-16T02:19:49.216Z,0.67
2023-05-16T02:22:15.724Z,1.15
2023-05-16T02:24:42.298Z,1.20
2023-05-16T02:27:08.850Z,0.95
2023-05-16T02:29:35.562Z,0.55
2023-05-16T02:32:02.119Z,1.17
2023-05-16T02:34:28.638Z,0.85
2023-05-16T02:36:55.141Z,1.00
2023-05-16T02:39:22.099Z,0.82
2023-05-16T02:41:51.015Z,0.77
2023-05-16T02:44:17.496Z,1.03
2023-05-16T02:46:44.093Z,1.17
2023-05-16T02:49:10.771Z,1.05
2023-05-16T02:51:38.685Z,0.73
2023-05-16T02:54:05.421Z,0.80
2023-05-16T02:56:31.901Z,1.17
2023-05-16T02:58:58.412Z,0.60
2023-05-16T03:01:24.996Z,0.82
2023-05-16T03:03:51.946Z,0.70
2023-05-16T03:06:18.777Z,0.80
2023-05-16T03:08:45.304Z,0.80
2023-05-16T03:11:11.867Z,1.48
2023-05-16T03:13:40.509Z,0.82
2023-05-16T03:16:07.077Z,1.45
2023-05-16T03:18:35.558Z,1.10
2023-05-16T03:21:03.200Z,0.87
2023-05-16T03:23:29.818Z,1.13
2023-05-16T03:25:56.436Z,0.60
2023-05-16T03:28:23.019Z,1.02
2023-05-16T03:30:49.530Z,1.50
2023-05-16T03:33:16.201Z,0.67
2023-05-16T03:35:43.661Z,0.50
2023-05-16T03:38:10.267Z,0.75
2023-05-16T03:40:36.871Z,0.75
2023-05-16T03:43:04.082Z,0.60
2023-05-16T03:45:31.442Z,0.70
2023-05-16T03:47:58.252Z,0.75
2023-05-16T03:50:25.483Z,0.73
2023-05-16T03:52:53.901Z,0.60
2023-05-16T03:55:21.079Z,0.80
2023-05-16T03:57:49.884Z,0.70
2023-05-16T04:00:17.019Z,0.70
2023-05-16T04:02:43.968Z,0.68
2023-05-16T04:05:11.727Z,0.65
2023-05-16T04:07:38.290Z,0.70
2023-05-16T04:10:05.957Z,0.70
2023-05-16T04:12:32.472Z,1.27
2023-05-16T04:14:59.138Z,1.45
2023-05-16T04:17:25.880Z,0.63
2023-05-16T04:19:52.484Z,0.88
2023-05-16T04:22:21.692Z,0.53
2023-05-16T04:24:48.350Z,0.93
2023-05-16T04:27:15.130Z,1.20
2023-05-16T04:29:42.569Z,0.90
2023-05-16T04:32:09.595Z,0.65
2023-05-16T04:34:39.808Z,0.73
2023-05-16T04:37:08.134Z,0.80
2023-05-16T04:39:36.201Z,0.60
2023-05-16T04:42:04.417Z,0.70
2023-05-16T04:44:31.123Z,0.80
2023-05-16T04:46:57.821Z,0.97
2023-05-16T04:49:24.397Z,0.75
2023-05-16T04:51:51.101Z,0.63
2023-05-16T04:54:17.674Z,0.90
2023-05-16T04:56:44.169Z,1.08
2023-05-16T04:59:10.812Z,1.30
2023-05-16T05:01:37.416Z,0.63
2023-05-16T05:04:04.067Z,0.73
2023-05-16T05:06:31.428Z,0.65
2023-05-16T05:08:57.961Z,0.63
2023-05-16T05:11:27.169Z,0.90
2023-05-16T05:13:53.682Z,0.77
2023-05-16T05:16:20.314Z,1.02
2023-05-16T05:18:47.033Z,0.60
2023-05-16T05:21:13.990Z,0.63
2023-05-16T05:23:40.488Z,0.70
2023-05-16T05:26:07.052Z,0.70
2023-05-16T05:28:33.775Z,0.60
2023-05-16T05:31:00.337Z,1.17
2023-05-16T05:33:30.397Z,0.77
2023-05-16T05:35:57.576Z,0.90
2023-05-16T05:38:24.227Z,0.73
2023-05-16T05:40:51.000Z,0.70
2023-05-16T05:43:17.718Z,1.10
2023-05-16T05:45:44.785Z,0.60
2023-05-16T05:48:12.485Z,0.70
2023-05-16T05:50:39.249Z,0.80
2023-05-16T05:53:06.005Z,0.90
2023-05-16T05:55:32.563Z,1.10
2023-05-16T05:57:59.156Z,0.75
2023-05-16T06:00:26.102Z,1.00
2023-05-16T06:02:53.021Z,0.80
2023-05-16T06:05:19.911Z,1.02
2023-05-16T06:07:46.468Z,1.10
2023-05-16T06:10:13.043Z,1.02
2023-05-16T06:12:39.499Z,0.60
2023-05-16T06:15:06.569Z,0.85
2023-05-16T06:17:33.363Z,1.55
2023-05-16T06:20:00.171Z,1.00
2023-05-16T06:22:27.608Z,1.15
2023-05-16T06:24:54.124Z,0.87
2023-05-16T06:27:20.717Z,0.60
2023-05-16T06:29:47.309Z,0.73
2023-05-16T06:32:13.858Z,0.75
2023-05-16T06:34:40.466Z,0.55
2023-05-16T06:37:07.010Z,1.60
2023-05-16T06:39:33.759Z,0.68
2023-05-16T06:42:00.895Z,0.80
2023-05-16T06:44:31.891Z,0.90
2023-05-16T06:46:58.831Z,0.60
2023-05-16T06:49:25.507Z,0.87
2023-05-16T06:51:52.036Z,0.60
2023-05-16T06:54:18.596Z,0.57
2023-05-16T06:56:45.577Z,0.68
2023-05-16T06:59:12.172Z,1.35
2023-05-16T07:01:38.847Z,0.60
2023-05-16T07:04:08.441Z,0.50
2023-05-16T07:06:35.229Z,0.25
2023-05-16T07:09:02.841Z,0.40
2023-05-16T07:11:29.460Z,0.47
2023-05-16T07:13:56.037Z,0.40
2023-05-16T07:16:22.731Z,1.20
2023-05-16T07:18:49.380Z,0.40
2023-05-16T07:21:16.451Z,0.52
2023-05-16T07:23:43.151Z,0.35
2023-05-16T07:26:09.782Z,0.70
2023-05-16T07:28:36.337Z,0.45
2023-05-16T07:31:02.978Z,0.43
2023-05-16T07:33:29.550Z,0.55
2023-05-16T07:36:07.881Z,0.20
2023-05-16T07:38:42.066Z,0.33
2023-05-16T07:41:08.627Z,0.30
2023-05-16T07:43:35.542Z,0.20
2023-05-16T07:46:02.802Z,0.30
2023-05-16T07:48:29.399Z,0.32
2023-05-16T07:50:56.136Z,0.37
2023-05-16T07:53:24.831Z,0.40
2023-05-16T07:55:51.678Z,0.50
2023-05-16T07:58:18.272Z,0.20
2023-05-16T08:00:44.867Z,0.20
2023-05-16T08:03:11.698Z,0.20
2023-05-16T08:05:38.446Z,0.20
2023-05-16T08:08:05.231Z,0.10
2023-05-16T08:10:31.878Z,0.32
2023-05-16T08:12:58.439Z,0.30
2023-05-16T08:15:27.248Z,0.20
2023-05-16T08:18:02.862Z,0.20
2023-05-16T08:20:29.555Z,0.20
2023-05-16T08:22:56.089Z,0.30
2023-05-16T08:25:22.689Z,0.20
2023-05-16T08:27:50.137Z,0.20
2023-05-16T08:30:16.825Z,0.38
2023-05-16T08:32:43.697Z,0.20
2023-05-16T08:35:11.288Z,0.30
2023-05-16T08:37:37.948Z,0.30
2023-05-16T08:40:10.650Z,0.30
2023-05-16T08:42:38.149Z,0.30
2023-05-16T08:45:05.893Z,0.50
2023-05-16T08:47:33.161Z,0.20
2023-05-16T08:50:02.772Z,0.30
2023-05-16T08:52:31.735Z,0.50
2023-05-16T08:57:36.629Z,0.82
2023-05-16T09:00:07.582Z,0.10
2023-05-16T09:02:34.388Z,0.38
2023-05-16T09:05:03.151Z,0.30
2023-05-16T09:07:29.745Z,0.20
2023-05-16T09:09:56.338Z,0.30
2023-05-16T09:12:22.928Z,0.30
2023-05-16T09:14:49.514Z,0.22
2023-05-16T09:17:18.693Z,0.20
2023-05-16T09:19:52.909Z,0.30
2023-05-16T09:22:19.526Z,0.40
2023-05-16T09:24:46.402Z,0.22
2023-05-16T09:27:14.934Z,0.30
2023-05-16T09:29:42.412Z,0.30
2023-05-16T09:32:17.190Z,0.60
2023-05-16T09:34:51.590Z,0.28
2023-05-16T09:37:18.960Z,0.40
2023-05-16T09:39:50.828Z,0.43
2023-05-16T09:42:19.401Z,0.20
2023-05-16T09:44:50.784Z,0.10
2023-05-16T09:47:21.419Z,0.40
2023-05-16T09:49:52.590Z,0.30
2023-05-16T09:52:19.573Z,0.52
2023-05-16T09:54:49.872Z,0.20
2023-05-16T09:57:20.325Z,0.30
2023-05-16T09:59:47.052Z,0.30
2023-05-16T10:02:14.356Z,0.40
2023-05-16T10:04:41.421Z,0.20
2023-05-16T10:07:09.882Z,0.53
2023-05-16T10:09:37.083Z,0.28
2023-05-16T10:12:07.958Z,0.20
2023-05-16T10:14:36.698Z,0.20
2023-05-16T10:17:07.837Z,0.35
2023-05-16T10:19:38.626Z,0.70
2023-05-16T10:22:07.167Z,0.30
2023-05-16T10:24:48.026Z,0.22
2023-05-16T10:27:16.894Z,0.25
2023-05-16T10:29:54.105Z,0.50
2023-05-16T10:32:23.720Z,0.40
2023-05-16T10:34:51.116Z,0.25
2023-05-16T10:37:17.961Z,0.30
2023-05-16T10:39:45.497Z,0.20
2023-05-16T10:42:14.423Z,0.30
2023-05-16T10:44:42.752Z,0.37
2023-05-16T10:47:20.035Z,0.20
2023-05-16T10:49:46.942Z,0.20
2023-05-16T10:52:15.630Z,0.30
2023-05-16T10:54:44.711Z,0.38
2023-05-16T10:57:17.222Z,0.40
2023-05-16T10:59:48.928Z,0.30
2023-05-16T11:02:35.870Z,0.52
2023-05-16T11:05:03.204Z,0.50
2023-05-16T11:07:35.078Z,0.43
2023-05-16T11:10:11.314Z,0.50
2023-05-16T11:12:39.215Z,0.43
2023-05-16T11:15:29.101Z,0.40
2023-05-16T11:18:08.661Z,0.50
2023-05-16T11:20:39.227Z,0.50
2023-05-16T11:23:23.089Z,0.57
2023-05-16T11:25:55.263Z,0.40
2023-05-16T11:28:24.547Z,0.50
2023-05-16T11:30:56.163Z,0.60
2023-05-16T11:33:24.379Z,0.50
2023-05-16T11:38:43.406Z,0.35
2023-05-16T11:41:10.065Z,0.50
2023-05-16T11:43:38.872Z,0.55
2023-05-16T11:46:05.431Z,0.88
2023-05-16T11:48:36.704Z,0.50
2023-05-16T11:51:03.992Z,0.63
2023-05-16T11:53:30.597Z,0.50
2023-05-16T11:56:00.231Z,0.50
2023-05-16T11:58:27.213Z,0.55
2023-05-16T12:00:53.803Z,0.57
2023-05-16T12:03:21.042Z,0.40
2023-05-16T12:05:54.981Z,0.30
2023-05-16T12:08:22.562Z,0.60
2023-05-16T12:10:51.546Z,0.60
2023-05-16T12:13:23.305Z,0.50
2023-05-16T12:15:51.303Z,0.57
2023-05-16T12:18:17.993Z,0.50
2023-05-16T12:20:44.926Z,0.47
2023-05-16T12:23:13.120Z,0.57
2023-05-16T12:25:49.320Z,0.70
2023-05-16T12:28:16.226Z,0.80
2023-05-16T12:30:44.328Z,0.60
2023-05-16T12:33:12.997Z,0.57
2023-05-16T12:35:41.691Z,0.38
2023-05-16T12:38:13.312Z,0.33
2023-05-16T12:40:41.815Z,0.47
2023-05-16T12:43:20.194Z,0.30
2023-05-16T12:45:55.136Z,0.75
2023-05-16T12:48:22.519Z,0.50
2023-05-16T12:50:49.403Z,0.30
2023-05-16T12:53:18.079Z,0.60
2023-05-16T12:55:45.489Z,0.60
2023-05-16T12:58:12.576Z,0.57
2023-05-16T13:00:39.709Z,0.60
2023-05-16T13:03:07.577Z,0.40
2023-05-16T13:05:36.077Z,0.30
2023-05-16T13:08:03.032Z,0.60
2023-05-16T13:10:29.808Z,0.40
2023-05-16T13:12:58.707Z,0.50
2023-05-16T13:15:26.047Z,0.60
2023-05-16T13:17:52.917Z,0.80
2023-05-16T13:20:20.788Z,0.60
2023-05-16T13:22:47.488Z,0.45
2023-05-16T13:25:14.106Z,0.57
2023-05-16T13:27:40.863Z,1.00
2023-05-16T13:30:07.842Z,0.70
2023-05-16T13:32:34.493Z,0.50
2023-05-16T13:35:01.102Z,0.30
2023-05-16T13:37:27.717Z,0.88
2023-05-16T13:39:57.074Z,0.73
2023-05-16T13:42:23.673Z,0.45
2023-05-16T13:44:50.342Z,0.70
2023-05-16T13:47:16.902Z,0.40
2023-05-16T13:49:43.716Z,0.85
2023-05-16T13:52:10.685Z,0.90
2023-05-16T13:54:37.276Z,0.73
2023-05-16T13:57:05.006Z,0.40
2023-05-16T14:00:02.107Z,1.10
2023-05-16T14:02:18.210Z,0.57
2023-05-16T14:04:44.721Z,0.40
2023-05-16T14:07:11.422Z,0.70
2023-05-16T14:09:40.424Z,0.40
2023-05-16T14:12:07.870Z,0.40
2023-05-16T14:14:35.718Z,0.70
2023-05-16T14:17:03.808Z,0.63
2023-05-16T14:19:30.842Z,0.75
2023-05-16T14:21:57.435Z,0.50
2023-05-16T14:24:25.073Z,0.80
2023-05-16T14:26:58.233Z,0.90
2023-05-16T14:29:25.689Z,0.90
2023-05-16T14:31:52.772Z,0.80
2023-05-16T14:34:19.467Z,0.85
2023-05-16T14:36:46.054Z,1.20
2023-05-16T14:39:12.728Z,1.05
2023-05-16T14:41:39.248Z,0.87
2023-05-16T14:44:05.986Z,0.98
2023-05-16T14:46:32.816Z,0.70
2023-05-16T14:48:59.504Z,0.70
2023-05-16T14:51:26.274Z,0.73
2023-05-16T14:53:52.875Z,0.50
2023-05-16T14:56:19.445Z,0.50
2023-05-16T14:58:45.949Z,0.40
2023-05-16T15:01:12.615Z,0.40
2023-05-16T15:06:09.024Z,0.50
2023-05-16T15:08:35.708Z,0.60
2023-05-16T15:11:02.283Z,0.50
2023-05-16T15:13:28.855Z,0.47
2023-05-16T15:15:55.524Z,0.50
2023-05-16T15:18:22.038Z,0.40
2023-05-16T15:20:48.657Z,0.50
2023-05-16T15:23:15.330Z,0.47
2023-05-16T15:25:41.913Z,0.38
2023-05-16T15:28:08.469Z,0.50
2023-05-16T15:30:35.025Z,0.83
2023-05-16T15:33:02.920Z,0.70
2023-05-16T15:35:29.993Z,0.80
2023-05-16T15:37:57.355Z,0.40
2023-05-16T15:40:27.179Z,0.70
2023-05-16T15:42:54.142Z,0.60
2023-05-16T15:45:21.119Z,0.55
2023-05-16T15:47:47.727Z,0.50
2023-05-16T15:50:14.400Z,0.50
2023-05-16T15:52:41.077Z,0.43
2023-05-16T15:55:07.894Z,0.37
2023-05-16T15:57:34.470Z,0.50
2023-05-16T16:00:01.066Z,0.57
2023-05-16T16:02:27.729Z,0.40
2023-05-16T16:04:54.349Z,0.52
2023-05-16T16:07:20.929Z,1.03
2023-05-16T16:09:47.505Z,0.40
2023-05-16T16:12:14.075Z,0.60
2023-05-16T16:14:41.264Z,0.45
2023-05-16T16:17:07.828Z,0.40
2023-05-16T16:19:34.352Z,0.40
2023-05-16T16:22:00.998Z,0.40
2023-05-16T16:24:27.572Z,0.68
2023-05-16T16:26:54.195Z,0.35
2023-05-16T16:29:20.778Z,0.50
2023-05-16T16:31:47.443Z,0.40
2023-05-16T16:34:14.090Z,0.40
2023-05-16T16:36:40.967Z,0.45
2023-05-16T16:39:07.563Z,0.50
2023-05-16T16:41:34.159Z,0.57
2023-05-16T16:44:00.701Z,0.43
2023-05-16T16:46:27.339Z,0.50
2023-05-16T16:48:54.772Z,0.30
2023-05-16T16:51:21.511Z,0.30
2023-05-16T16:53:48.087Z,0.40
2023-05-16T16:56:14.630Z,0.40
2023-05-16T16:58:41.684Z,0.40
2023-05-16T17:01:08.241Z,0.40
2023-05-16T17:03:35.022Z,0.40
2023-05-16T17:06:02.502Z,0.40
2023-05-16T17:08:29.339Z,0.70
2023-05-16T17:10:55.991Z,0.40
2023-05-16T17:13:22.509Z,0.70
2023-05-16T17:15:49.070Z,0.50
2023-05-16T17:18:15.819Z,0.60
2023-05-16T17:20:42.495Z,0.53
2023-05-16T17:23:09.217Z,0.35
2023-05-16T17:25:35.894Z,0.82
2023-05-16T17:28:02.647Z,0.73
2023-05-16T17:30:29.185Z,0.63
2023-05-16T17:32:55.811Z,0.30
2023-05-16T17:35:22.424Z,0.70
2023-05-16T17:37:49.948Z,0.32
2023-05-16T17:40:17.707Z,0.40
2023-05-16T17:42:45.172Z,0.50
2023-05-16T17:45:13.047Z,0.30
2023-05-16T17:47:40.335Z,0.50
2023-05-16T17:50:09.960Z,0.60
2023-05-16T17:52:37.937Z,1.05
2023-05-16T17:55:06.122Z,0.57
2023-05-16T17:57:34.219Z,0.67
2023-05-16T18:00:01.820Z,0.57
2023-05-16T18:02:31.998Z,0.63
2023-05-16T18:04:58.748Z,0.60
2023-05-16T18:07:26.419Z,0.40
2023-05-16T18:09:53.592Z,0.43
2023-05-16T18:12:20.226Z,0.40
2023-05-16T18:14:47.031Z,0.32
2023-05-16T18:17:13.638Z,0.52
2023-05-16T18:19:40.357Z,0.65
2023-05-16T18:22:08.739Z,0.63
2023-05-16T18:24:35.520Z,0.75
2023-05-16T18:27:03.460Z,0.93
2023-05-16T18:29:30.470Z,0.88
2023-05-16T18:31:57.784Z,1.10
2023-05-16T18:34:24.473Z,0.90
2023-05-16T18:36:51.248Z,1.20
2023-05-16T18:39:18.816Z,1.42
2023-05-16T18:41:46.796Z,1.20
2023-05-16T18:44:16.841Z,1.02
2023-05-16T18:46:46.663Z,0.57
2023-05-16T18:49:14.225Z,0.70
2023-05-16T18:51:41.214Z,0.65
2023-05-16T18:54:07.888Z,0.80
2023-05-16T18:56:34.675Z,0.68
2023-05-16T18:59:02.547Z,0.90
2023-05-16T19:01:29.352Z,0.85
2023-05-16T19:03:56.120Z,1.00
2023-05-16T19:06:23.211Z,1.13
2023-05-16T19:08:50.019Z,1.20
2023-05-16T19:11:17.939Z,1.77
2023-05-16T19:13:47.630Z,2.05
2023-05-16T19:16:14.628Z,1.90
2023-05-16T19:18:41.410Z,1.77
2023-05-16T19:21:08.614Z,1.52
2023-05-16T19:23:35.352Z,1.70
2023-05-16T19:26:02.497Z,1.67
2023-05-16T19:28:29.495Z,1.77
2023-05-16T19:30:56.210Z,1.88
2023-05-16T19:33:22.838Z,2.03
2023-05-16T19:35:51.573Z,2.30
2023-05-16T19:38:19.763Z,2.10
2023-05-16T19:40:46.865Z,2.05
2023-05-16T19:43:13.454Z,1.92
2023-05-16T19:45:40.146Z,2.20
2023-05-16T19:48:07.622Z,1.80
2023-05-16T19:50:37.765Z,1.85
2023-05-16T19:53:05.427Z,2.22
2023-05-16T19:55:34.351Z,1.77
2023-05-16T19:58:02.298Z,2.00
2023-05-16T20:00:29.301Z,1.87
2023-05-16T20:02:55.999Z,1.95
2023-05-16T20:05:23.423Z,1.70
2023-05-16T20:07:50.531Z,2.10
2023-05-16T20:10:18.342Z,1.48
2023-05-16T20:12:45.817Z,2.67
2023-05-16T20:15:12.774Z,1.83
2023-05-16T20:17:40.208Z,1.73
2023-05-16T20:20:09.409Z,1.58
2023-05-16T20:22:39.471Z,1.77
2023-05-16T20:25:07.104Z,1.80
2023-05-16T20:27:34.031Z,1.38
2023-05-16T20:30:02.921Z,1.50
2023-05-16T20:32:29.590Z,1.50
2023-05-16T20:34:56.358Z,1.60
2023-05-16T20:37:26.527Z,1.17
2023-05-16T20:39:54.393Z,1.75
2023-05-16T20:42:21.461Z,1.52
2023-05-16T20:44:48.162Z,1.65
2023-05-16T20:47:14.796Z,1.58
2023-05-16T20:49:41.336Z,1.43
2023-05-16T20:52:07.943Z,1.85
2023-05-16T20:54:35.042Z,1.60
2023-05-16T20:57:06.060Z,1.38
2023-05-16T20:59:33.790Z,1.50
2023-05-16T21:02:00.722Z,1.70
2023-05-16T21:04:27.385Z,1.70
2023-05-16T21:06:54.054Z,1.67
2023-05-16T21:09:20.757Z,1.50
2023-05-16T21:11:47.462Z,1.70
2023-05-16T21:14:14.071Z,1.70
2023-05-16T21:16:40.639Z,1.95
2023-05-16T21:19:07.245Z,1.50
2023-05-16T21:21:33.964Z,1.75
2023-05-16T21:24:00.756Z,1.30
2023-05-16T21:26:27.402Z,1.50
2023-05-16T21:28:55.642Z,1.40
2023-05-16T21:31:22.826Z,2.08
2023-05-16T21:33:51.908Z,1.48
2023-05-16T21:36:19.615Z,1.50
2023-05-16T21:38:46.179Z,2.00
2023-05-16T21:41:13.274Z,2.10
2023-05-16T21:43:40.320Z,1.45
2023-05-16T21:46:07.102Z,1.92
2023-05-16T21:48:33.878Z,1.70
2023-05-16T21:51:00.648Z,1.90
2023-05-16T21:53:27.732Z,2.13
2023-05-16T21:55:54.398Z,1.35
2023-05-16T21:58:21.955Z,1.90
2023-05-16T22:00:49.870Z,2.05
2023-05-16T22:03:19.140Z,1.90
2023-05-16T22:05:46.688Z,1.90
2023-05-16T22:08:13.350Z,2.50
2023-05-16T22:10:39.983Z,1.73
2023-05-16T22:13:08.027Z,1.77
2023-05-16T22:15:34.872Z,1.40
2023-05-16T22:18:01.629Z,1.92
2023-05-16T22:20:28.454Z,1.77
2023-05-16T22:22:55.115Z,1.70
2023-05-16T22:25:21.847Z,1.58
2023-05-16T22:27:48.378Z,2.27
2023-05-16T22:30:14.992Z,1.52
2023-05-16T22:32:41.895Z,1.77
2023-05-16T22:35:08.792Z,1.85
2023-05-16T22:37:35.588Z,1.67
2023-05-16T22:40:02.472Z,1.93
2023-05-16T22:42:30.266Z,1.73
2023-05-16T22:44:57.096Z,1.77
2023-05-16T22:47:23.873Z,2.28
2023-05-16T22:49:50.942Z,2.20
2023-05-16T22:52:17.417Z,1.50
2023-05-16T22:54:44.005Z,1.40
2023-05-16T22:57:10.642Z,2.05
2023-05-16T22:59:37.194Z,2.00
2023-05-16T23:02:03.863Z,1.60
2023-05-16T23:04:30.435Z,2.07
2023-05-16T23:06:57.015Z,1.83
2023-05-16T23:09:23.677Z,2.10
2023-05-16T23:11:50.280Z,1.40
2023-05-16T23:14:17.273Z,1.65
2023-05-16T23:16:43.783Z,1.77
2023-05-16T23:19:10.385Z,1.70
2023-05-16T23:21:37.375Z,2.17
2023-05-16T23:24:04.430Z,1.60
2023-05-16T23:26:31.774Z,1.83
2023-05-16T23:28:58.353Z,1.80
2023-05-16T23:31:24.949Z,2.70
2023-05-16T23:33:51.620Z,1.85
2023-05-16T23:36:18.207Z,1.75
2023-05-16T23:38:44.853Z,2.15
2023-05-16T23:41:11.450Z,1.90
2023-05-16T23:43:38.039Z,2.58
2023-05-16T23:46:04.602Z,1.50
2023-05-16T23:48:31.393Z,2.00
2023-05-16T23:50:58.624Z,2.20
2023-05-16T23:53:29.046Z,2.10
2023-05-16T23:55:56.152Z,1.98
2023-05-16T23:58:22.772Z,1.90
